createdAt,value
2019-02-19T00:01:34.463Z,5.43
2019-02-19T00:04:03.622Z,5.70
2019-02-19T00:06:32.794Z,4.93
2019-02-19T00:09:01.882Z,5.60
2019-02-19T00:11:30.943Z,5.80
2019-02-19T00:14:00.003Z,5.97
2019-02-19T00:16:29.053Z,5.80
2019-02-19T00:18:58.093Z,5.40
2019-02-19T00:21:27.104Z,6.03
2019-02-19T00:23:56.167Z,5.80
2019-02-19T00:26:25.224Z,5.70
2019-02-19T00:28:54.239Z,5.90
2019-02-19T00:31:23.235Z,5.13
2019-02-19T00:33:52.275Z,6.03
2019-02-19T00:36:21.315Z,5.40
2019-02-19T00:38:50.355Z,5.37
2019-02-19T00:41:19.339Z,5.27
2019-02-19T00:43:48.370Z,5.83
2019-02-19T00:46:17.457Z,5.80
2019-02-19T00:48:46.506Z,5.40
2019-02-19T00:51:15.411Z,5.53
2019-02-19T00:53:44.566Z,5.70
2019-02-19T00:56:13.577Z,5.47
2019-02-19T00:58:42.628Z,5.00
2019-02-19T01:01:11.608Z,5.93
2019-02-19T01:03:40.667Z,5.33
2019-02-19T01:06:09.665Z,5.33
2019-02-19T01:08:38.724Z,5.53
2019-02-19T01:11:07.744Z,5.70
2019-02-19T01:13:36.779Z,4.83
2019-02-19T01:16:05.742Z,5.50
2019-02-19T01:18:34.790Z,5.33
2019-02-19T01:21:03.786Z,5.20
2019-02-19T01:23:32.835Z,5.30
2019-02-19T01:26:01.930Z,5.63
2019-02-19T01:28:30.981Z,5.47
2019-02-19T01:30:59.911Z,5.30
2019-02-19T01:33:28.903Z,4.87
2019-02-19T01:35:57.896Z,5.57
2019-02-19T01:38:26.994Z,5.07
2019-02-19T01:40:55.988Z,5.20
2019-02-19T01:43:25.037Z,5.50
2019-02-19T01:45:54.028Z,5.50
2019-02-19T01:48:23.121Z,6.30
2019-02-19T01:50:52.146Z,6.53
2019-02-19T01:53:21.198Z,5.97
2019-02-19T01:55:50.224Z,6.13
2019-02-19T01:58:19.295Z,5.93
2019-02-19T02:00:48.349Z,6.57
2019-02-19T02:03:17.277Z,6.10
2019-02-19T02:05:46.268Z,6.97
2019-02-19T02:08:15.261Z,6.77
2019-02-19T02:10:44.262Z,6.80
2019-02-19T02:13:13.174Z,7.20
2019-02-19T02:15:42.912Z,7.73
2019-02-19T02:18:12.020Z,8.07
2019-02-19T02:20:41.065Z,7.53
2019-02-19T02:23:10.095Z,7.63
2019-02-19T02:25:39.166Z,8.50
2019-02-19T02:28:08.140Z,8.23
2019-02-19T02:30:37.155Z,8.87
2019-02-19T02:33:06.183Z,8.77
2019-02-19T02:35:35.201Z,9.13
2019-02-19T02:38:04.240Z,10.43
2019-02-19T02:40:33.100Z,9.70
2019-02-19T02:43:02.101Z,9.23
2019-02-19T02:45:31.145Z,9.87
2019-02-19T02:48:00.222Z,9.07
2019-02-19T02:50:29.191Z,9.67
2019-02-19T02:52:58.088Z,9.53
2019-02-19T02:55:27.130Z,9.80
2019-02-19T02:57:56.146Z,9.50
2019-02-19T03:00:25.194Z,9.97
2019-02-19T03:02:54.121Z,9.87
2019-02-19T03:05:25.288Z,10.07
2019-02-19T03:07:56.901Z,11.37
2019-02-19T03:10:25.939Z,10.60
2019-02-19T03:12:55.004Z,11.77
2019-02-19T03:15:23.963Z,12.10
2019-02-19T03:17:52.994Z,12.17
2019-02-19T03:20:22.039Z,13.97
2019-02-19T03:22:50.979Z,13.87
2019-02-19T03:25:19.976Z,12.77
2019-02-19T03:27:48.897Z,12.83
2019-02-19T03:30:17.916Z,13.67
2019-02-19T03:32:46.795Z,13.63
2019-02-19T03:35:15.816Z,14.80
2019-02-19T03:37:44.824Z,15.00
2019-02-19T03:40:13.841Z,13.87
2019-02-19T03:42:42.826Z,15.23
2019-02-19T03:45:11.971Z,14.53
2019-02-19T03:47:41.037Z,15.27
2019-02-19T03:50:10.086Z,14.57
2019-02-19T03:52:38.976Z,14.40
2019-02-19T03:55:08.027Z,14.27
2019-02-19T03:57:37.362Z,14.13
2019-02-19T04:00:06.252Z,13.43
2019-02-19T04:02:35.197Z,14.33
2019-02-19T04:05:04.090Z,15.10
2019-02-19T04:07:33.122Z,15.47
2019-02-19T04:10:02.093Z,14.33
2019-02-19T04:12:31.067Z,15.43
2019-02-19T04:14:59.994Z,14.10
2019-02-19T04:17:28.945Z,15.30
2019-02-19T04:19:57.944Z,15.60
2019-02-19T04:22:26.975Z,14.37
2019-02-19T04:24:55.935Z,15.33
2019-02-19T04:27:24.830Z,15.07
2019-02-19T04:29:53.931Z,16.07
2019-02-19T04:32:22.976Z,14.87
2019-02-19T04:34:52.171Z,13.57
2019-02-19T04:37:21.202Z,14.67
2019-02-19T04:39:50.181Z,15.10
2019-02-19T04:42:19.304Z,13.53
2019-02-19T04:44:48.321Z,14.87
2019-02-19T04:47:17.381Z,13.77
2019-02-19T04:49:46.369Z,15.63
2019-02-19T04:52:15.443Z,14.13
2019-02-19T04:54:44.470Z,14.97
2019-02-19T04:57:13.623Z,14.03
2019-02-19T04:59:42.688Z,14.00
2019-02-19T05:02:11.737Z,14.43
2019-02-19T05:04:40.769Z,14.37
2019-02-19T05:07:09.869Z,15.57
2019-02-19T05:09:38.918Z,14.03
2019-02-19T05:12:07.998Z,14.17
2019-02-19T05:14:37.013Z,13.97
2019-02-19T05:17:06.090Z,13.90
2019-02-19T05:19:34.995Z,13.37
2019-02-19T05:22:04.055Z,15.23
2019-02-19T05:24:33.064Z,13.40
2019-02-19T05:27:02.135Z,15.17
2019-02-19T05:29:31.161Z,14.83
2019-02-19T05:32:00.193Z,15.03
2019-02-19T05:34:29.386Z,16.47
2019-02-19T05:36:58.474Z,15.97
2019-02-19T05:39:27.518Z,16.27
2019-02-19T05:41:56.588Z,16.80
2019-02-19T05:44:25.748Z,17.20
2019-02-19T05:46:54.736Z,16.83
2019-02-19T05:49:23.797Z,16.83
2019-02-19T05:51:52.869Z,16.97
2019-02-19T05:54:24.455Z,17.60
2019-02-19T05:56:53.522Z,17.70
2019-02-19T05:59:22.689Z,18.63
2019-02-19T06:01:51.690Z,19.10
2019-02-19T06:04:20.864Z,18.83
2019-02-19T06:06:49.915Z,19.17
2019-02-19T06:09:20.256Z,19.90
2019-02-19T06:11:49.307Z,19.67
2019-02-19T06:14:20.192Z,20.17
2019-02-19T06:16:49.256Z,20.43
2019-02-19T06:19:18.458Z,22.67
2019-02-19T06:21:47.498Z,20.90
2019-02-19T06:24:16.565Z,20.07
2019-02-19T06:26:45.639Z,20.97
2019-02-19T06:29:14.741Z,21.70
2019-02-19T06:31:43.837Z,22.00
2019-02-19T06:34:14.311Z,22.07
2019-02-19T06:36:43.436Z,22.90
2019-02-19T06:39:12.484Z,23.97
2019-02-19T06:41:41.555Z,25.80
2019-02-19T06:44:10.648Z,24.93
2019-02-19T06:46:39.765Z,25.13
2019-02-19T06:49:08.996Z,24.17
2019-02-19T06:51:38.045Z,23.83
2019-02-19T06:54:07.113Z,25.23
2019-02-19T06:56:36.099Z,25.37
2019-02-19T06:59:05.254Z,22.73
2019-02-19T07:01:53.922Z,24.97
2019-02-19T07:04:26.847Z,24.17
2019-02-19T07:06:55.828Z,22.97
2019-02-19T07:09:24.945Z,23.87
2019-02-19T07:11:53.988Z,22.03
2019-02-19T07:14:23.001Z,24.07
2019-02-19T07:16:52.116Z,21.60
2019-02-19T07:19:21.324Z,20.83
2019-02-19T07:21:50.399Z,21.43
2019-02-19T07:24:19.489Z,20.30
2019-02-19T07:26:48.804Z,20.67
2019-02-19T07:29:17.951Z,20.53
2019-02-19T07:31:47.019Z,20.67
2019-02-19T07:34:16.101Z,19.90
2019-02-19T07:36:45.201Z,19.77
2019-02-19T07:39:14.293Z,19.63
2019-02-19T07:41:43.229Z,19.40
2019-02-19T07:44:12.227Z,19.67
2019-02-19T07:46:41.316Z,17.93
2019-02-19T07:49:10.279Z,18.67
2019-02-19T07:51:39.400Z,18.13
2019-02-19T07:54:08.365Z,18.00
2019-02-19T07:56:37.447Z,18.40
2019-02-19T07:59:06.565Z,17.37
2019-02-19T08:01:35.565Z,18.27
2019-02-19T08:04:04.660Z,16.50
2019-02-19T08:06:33.706Z,16.43
2019-02-19T08:09:03.642Z,17.00
2019-02-19T08:11:32.738Z,19.23
2019-02-19T08:14:03.393Z,17.37
2019-02-19T08:16:33.543Z,17.00
2019-02-19T08:19:02.695Z,17.60
2019-02-19T08:21:31.773Z,18.20
2019-02-19T08:24:00.866Z,17.10
2019-02-19T08:26:30.008Z,15.73
2019-02-19T08:29:07.136Z,16.50
2019-02-19T08:31:29.869Z,16.93
2019-02-19T08:33:58.959Z,15.70
2019-02-19T08:36:29.677Z,15.67
2019-02-19T08:38:59.335Z,16.23
2019-02-19T08:41:28.383Z,15.77
2019-02-19T08:43:57.452Z,15.30
2019-02-19T08:46:26.563Z,15.73
2019-02-19T08:48:55.641Z,15.47
2019-02-19T08:51:31.552Z,14.00
2019-02-19T08:54:00.717Z,14.40
2019-02-19T08:56:29.885Z,14.63
2019-02-19T08:58:59.036Z,14.63
2019-02-19T09:01:28.097Z,14.27
2019-02-19T09:03:57.355Z,12.33
2019-02-19T09:06:27.721Z,12.03
2019-02-19T09:08:59.705Z,12.53
2019-02-19T09:11:32.624Z,11.37
2019-02-19T09:14:04.320Z,11.60
2019-02-19T09:16:35.191Z,10.87
2019-02-19T09:19:05.611Z,11.60
2019-02-19T09:21:36.446Z,11.33
2019-02-19T09:24:09.436Z,11.33
2019-02-19T09:26:38.094Z,11.73
2019-02-19T09:29:11.791Z,10.73
2019-02-19T09:31:42.639Z,9.97
2019-02-19T09:34:13.767Z,10.23
2019-02-19T09:36:44.763Z,10.73
2019-02-19T09:39:14.552Z,10.07
2019-02-19T09:41:44.610Z,11.10
2019-02-19T09:44:14.859Z,10.03
2019-02-19T09:46:49.264Z,10.20
2019-02-19T09:49:21.436Z,9.27
2019-02-19T09:51:51.632Z,8.60
2019-02-19T09:54:26.153Z,9.33
2019-02-19T09:56:59.852Z,9.27
2019-02-19T09:59:30.005Z,9.63
2019-02-19T10:02:35.940Z,7.23
2019-02-19T10:05:17.402Z,9.37
2019-02-19T10:07:53.269Z,9.23
2019-02-19T10:10:23.789Z,8.33
2019-02-19T10:12:55.577Z,8.67
2019-02-19T10:15:25.710Z,9.33
2019-02-19T10:17:55.710Z,7.70
2019-02-19T10:20:25.705Z,8.50
2019-02-19T10:22:56.196Z,9.30
2019-02-19T10:25:27.981Z,9.80
2019-02-19T10:27:57.973Z,9.47
2019-02-19T10:30:28.467Z,8.67
2019-02-19T10:32:58.649Z,8.37
2019-02-19T10:35:29.172Z,7.30
2019-02-19T10:38:03.086Z,6.90
2019-02-19T10:40:33.353Z,7.70
2019-02-19T10:43:03.425Z,8.17
2019-02-19T10:45:33.897Z,7.77
2019-02-19T10:48:06.903Z,8.63
2019-02-19T10:50:40.960Z,6.03
2019-02-19T10:53:13.138Z,7.20
2019-02-19T10:55:43.335Z,7.10
2019-02-19T10:58:22.246Z,6.53
2019-02-19T11:00:48.600Z,6.40
2019-02-19T11:03:21.334Z,6.30
2019-02-19T11:05:51.920Z,6.80
2019-02-19T11:08:23.009Z,6.70
2019-02-19T11:10:53.847Z,7.07
2019-02-19T11:13:30.506Z,6.60
2019-02-19T11:16:00.621Z,7.53
2019-02-19T11:18:35.172Z,6.73
2019-02-19T11:21:07.683Z,7.40
2019-02-19T11:23:40.299Z,6.83
2019-02-19T11:26:16.704Z,6.97
2019-02-19T11:28:47.007Z,5.83
2019-02-19T11:31:18.931Z,6.50
2019-02-19T11:33:50.156Z,6.10
2019-02-19T11:36:20.244Z,6.87
2019-02-19T11:38:50.695Z,7.20
2019-02-19T11:41:20.755Z,6.67
2019-02-19T11:43:53.489Z,6.60
2019-02-19T11:46:24.257Z,6.27
2019-02-19T11:48:56.261Z,5.70
2019-02-19T11:51:29.997Z,6.33
2019-02-19T11:54:00.313Z,6.77
2019-02-19T11:56:30.975Z,6.33
2019-02-19T11:59:02.306Z,6.93
2019-02-19T12:01:33.282Z,6.37
2019-02-19T12:04:03.311Z,6.83
2019-02-19T12:06:34.116Z,6.60
2019-02-19T12:09:12.797Z,6.20
2019-02-19T12:11:42.785Z,6.30
2019-02-19T12:14:13.056Z,6.00
2019-02-19T12:16:43.646Z,5.63
2019-02-19T12:19:13.691Z,5.90
2019-02-19T12:21:43.742Z,6.50
2019-02-19T12:24:12.809Z,6.13
2019-02-19T12:26:41.895Z,6.03
2019-02-19T12:29:10.887Z,6.57
2019-02-19T12:31:39.969Z,6.07
2019-02-19T12:34:08.972Z,6.53
2019-02-19T12:36:37.934Z,6.37
2019-02-19T12:39:07.036Z,6.80
2019-02-19T12:41:36.113Z,6.07
2019-02-19T12:44:05.119Z,5.77
2019-02-19T12:46:34.157Z,5.70
2019-02-19T12:49:03.221Z,5.93
2019-02-19T12:51:32.215Z,5.60
2019-02-19T12:54:01.280Z,6.13
2019-02-19T12:56:30.332Z,5.77
2019-02-19T12:58:59.350Z,6.03
2019-02-19T13:01:28.430Z,5.67
2019-02-19T13:03:57.425Z,5.37
2019-02-19T13:06:26.465Z,5.43
2019-02-19T13:08:56.313Z,5.37
2019-02-19T13:11:25.359Z,4.93
2019-02-19T13:13:54.369Z,5.57
2019-02-19T13:16:23.308Z,4.97
2019-02-19T13:18:52.361Z,4.70
2019-02-19T13:21:21.401Z,4.70
2019-02-19T13:23:50.654Z,4.30
2019-02-19T13:26:19.686Z,4.83
2019-02-19T13:28:48.708Z,5.07
2019-02-19T13:31:17.744Z,3.90
2019-02-19T13:33:46.729Z,4.33
2019-02-19T13:36:15.783Z,4.47
2019-02-19T13:38:44.968Z,4.10
2019-02-19T13:41:14.017Z,3.97
2019-02-19T13:43:43.000Z,4.00
2019-02-19T13:46:12.058Z,3.70
2019-02-19T13:48:41.061Z,3.27
2019-02-19T13:51:10.091Z,3.57
2019-02-19T13:53:53.836Z,3.90
2019-02-19T13:56:22.819Z,4.03
2019-02-19T13:58:51.954Z,3.67
2019-02-19T14:01:21.064Z,3.60
2019-02-19T14:03:50.088Z,3.50
2019-02-19T14:06:19.081Z,3.10
2019-02-19T14:08:48.118Z,3.03
2019-02-19T14:11:17.239Z,3.40
2019-02-19T14:14:08.271Z,3.00
2019-02-19T14:16:58.867Z,2.70
2019-02-19T14:19:49.848Z,2.73
2019-02-19T14:22:38.754Z,2.77
2019-02-19T14:25:25.873Z,2.90
2019-02-19T14:28:17.575Z,3.03
2019-02-19T14:31:17.617Z,3.20
2019-02-19T14:34:14.859Z,3.27
2019-02-19T14:37:01.735Z,2.97
2019-02-19T14:40:10.335Z,3.47
2019-02-19T14:42:53.118Z,2.80
2019-02-19T14:45:53.400Z,3.10
2019-02-19T14:48:50.449Z,3.10
2019-02-19T14:51:33.604Z,2.90
2019-02-19T14:54:24.415Z,2.83
2019-02-19T14:57:24.273Z,2.40
2019-02-19T15:00:15.014Z,2.50
2019-02-19T15:02:56.801Z,2.50
2019-02-19T15:05:46.726Z,3.40
2019-02-19T15:08:25.941Z,2.93
2019-02-19T15:11:22.827Z,3.93
2019-02-19T15:14:13.843Z,3.17
2019-02-19T15:17:19.987Z,2.47
2019-02-19T15:20:07.980Z,2.77
2019-02-19T15:22:59.048Z,2.20
2019-02-19T15:25:49.244Z,2.57
2019-02-19T15:28:37.352Z,2.63
2019-02-19T15:31:43.685Z,2.80
2019-02-19T15:34:30.250Z,2.80
2019-02-19T15:37:27.053Z,3.10
2019-02-19T15:40:17.802Z,2.80
2019-02-19T15:43:04.522Z,2.60
2019-02-19T15:45:52.549Z,2.70
2019-02-19T15:48:46.602Z,3.10
2019-02-19T15:51:28.037Z,2.50
2019-02-19T15:54:19.983Z,2.83
2019-02-19T15:57:13.124Z,3.27
2019-02-19T15:59:59.874Z,3.30
2019-02-19T16:03:02.943Z,3.10
2019-02-19T16:06:02.557Z,2.70
2019-02-19T16:08:50.589Z,4.00
2019-02-19T16:11:38.453Z,3.50
2019-02-19T16:14:20.586Z,3.17
2019-02-19T16:17:08.003Z,3.17
2019-02-19T16:19:43.045Z,3.00
2019-02-19T16:22:32.528Z,3.20
2019-02-19T16:25:20.523Z,3.07
2019-02-19T16:28:08.486Z,3.10
2019-02-19T16:30:55.394Z,3.57
2019-02-19T16:33:49.639Z,3.13
2019-02-19T16:36:40.402Z,6.43
2019-02-19T16:39:31.494Z,4.50
2019-02-19T16:42:19.472Z,3.60
2019-02-19T16:45:05.984Z,4.33
2019-02-19T16:47:45.144Z,3.23
2019-02-19T16:50:51.296Z,3.00
2019-02-19T16:53:48.409Z,3.57
2019-02-19T16:56:29.911Z,3.03
2019-02-19T16:59:36.161Z,3.07
2019-02-19T17:02:28.068Z,3.50
2019-02-19T17:05:16.184Z,3.90
2019-02-19T17:07:50.395Z,4.30
2019-02-19T17:10:28.294Z,4.40
2019-02-19T17:13:05.431Z,4.50
2019-02-19T17:15:52.112Z,5.13
2019-02-19T17:18:39.065Z,5.73
2019-02-19T17:21:19.442Z,4.77
2019-02-19T17:24:07.421Z,5.60
2019-02-19T17:26:53.902Z,4.00
2019-02-19T17:29:45.314Z,4.60
2019-02-19T17:32:48.621Z,3.53
2019-02-19T17:35:26.860Z,5.67
2019-02-19T17:38:23.725Z,3.10
2019-02-19T17:41:18.226Z,3.30
2019-02-19T17:43:57.951Z,3.80
2019-02-19T17:46:44.539Z,5.67
2019-02-19T17:49:24.405Z,5.10
2019-02-19T17:52:14.494Z,3.97
2019-02-19T17:54:55.896Z,3.63
2019-02-19T17:57:59.143Z,3.87
2019-02-19T18:00:38.336Z,3.57
2019-02-19T18:03:20.100Z,3.57
2019-02-19T18:06:10.891Z,3.80
2019-02-19T18:09:13.994Z,3.77
2019-02-19T18:11:59.991Z,2.90
2019-02-19T18:14:50.856Z,3.60
2019-02-19T18:17:29.953Z,3.83
2019-02-19T18:19:59.956Z,3.70
2019-02-19T18:22:29.019Z,4.50
2019-02-19T18:24:57.993Z,3.80
2019-02-19T18:27:27.086Z,3.70
2019-02-19T18:29:56.181Z,3.90
2019-02-19T18:32:25.286Z,4.47
2019-02-19T18:34:54.568Z,3.87
2019-02-19T18:37:23.680Z,4.10
2019-02-19T18:39:52.763Z,3.77
2019-02-19T18:42:21.836Z,3.40
2019-02-19T18:44:51.132Z,4.07
2019-02-19T18:47:21.740Z,3.03
2019-02-19T18:49:50.886Z,3.47
2019-02-19T18:52:20.272Z,3.40
2019-02-19T18:54:50.401Z,3.33
2019-02-19T18:57:19.695Z,3.27
2019-02-19T18:59:50.522Z,3.27
2019-02-19T19:02:19.884Z,3.27
2019-02-19T19:04:48.823Z,3.10
2019-02-19T19:07:19.446Z,3.37
2019-02-19T19:09:48.642Z,4.03
2019-02-19T19:12:17.718Z,3.57
2019-02-19T19:14:46.729Z,3.67
2019-02-19T19:17:15.728Z,3.20
2019-02-19T19:19:44.805Z,4.40
2019-02-19T19:22:14.980Z,4.80
2019-02-19T19:24:44.005Z,4.00
2019-02-19T19:27:13.145Z,3.77
2019-02-19T19:29:42.220Z,7.53
2019-02-19T19:32:11.297Z,4.00
2019-02-19T19:34:40.387Z,5.50
2019-02-19T19:37:09.456Z,3.87
2019-02-19T19:39:38.544Z,4.30
2019-02-19T19:42:07.650Z,5.33
2019-02-19T19:44:36.702Z,4.10
2019-02-19T19:47:05.798Z,3.60
2019-02-19T19:49:34.932Z,3.97
2019-02-19T19:52:04.040Z,4.23
2019-02-19T19:54:33.079Z,4.20
2019-02-19T19:57:02.094Z,5.03
2019-02-19T19:59:31.061Z,4.00
2019-02-19T20:02:00.146Z,3.83
2019-02-19T20:04:29.345Z,4.30
2019-02-19T20:06:58.411Z,4.43
2019-02-19T20:09:27.427Z,4.33
2019-02-19T20:11:56.451Z,5.03
2019-02-19T20:14:25.504Z,4.23
2019-02-19T20:16:54.496Z,5.20
2019-02-19T20:19:23.565Z,4.30
2019-02-19T20:21:52.605Z,4.23
2019-02-19T20:24:21.660Z,5.03
2019-02-19T20:26:50.732Z,4.13
2019-02-19T20:29:19.858Z,4.93
2019-02-19T20:31:48.889Z,4.60
2019-02-19T20:34:18.105Z,4.30
2019-02-19T20:36:47.241Z,5.37
2019-02-19T20:39:16.336Z,4.40
2019-02-19T20:41:45.311Z,4.20
2019-02-19T20:44:14.241Z,4.30
2019-02-19T20:46:43.401Z,4.67
2019-02-19T20:49:12.346Z,4.37
2019-02-19T20:51:41.340Z,4.67
2019-02-19T20:54:10.357Z,3.97
2019-02-19T20:56:39.302Z,4.90
2019-02-19T20:59:08.395Z,4.93
2019-02-19T21:01:37.433Z,4.47
2019-02-19T21:04:06.344Z,4.93
2019-02-19T21:06:35.279Z,5.30
2019-02-19T21:09:04.501Z,4.80
2019-02-19T21:11:33.597Z,4.87
2019-02-19T21:14:02.589Z,4.87
2019-02-19T21:16:31.608Z,5.17
2019-02-19T21:19:00.608Z,5.23
2019-02-19T21:21:29.630Z,4.87
2019-02-19T21:23:58.695Z,5.57
2019-02-19T21:26:27.719Z,4.80
2019-02-19T21:28:56.712Z,4.70
2019-02-19T21:31:25.721Z,5.00
2019-02-19T21:33:54.721Z,4.50
2019-02-19T21:36:23.659Z,5.40
2019-02-19T21:38:52.731Z,5.70
2019-02-19T21:41:21.669Z,4.50
2019-02-19T21:43:50.512Z,5.07
2019-02-19T21:46:19.663Z,5.00
2019-02-19T21:48:48.641Z,5.90
2019-02-19T21:51:17.709Z,5.33
2019-02-19T21:53:46.684Z,5.40
2019-02-19T21:56:15.671Z,4.90
2019-02-19T21:58:44.743Z,4.90
2019-02-19T22:01:13.795Z,5.57
2019-02-19T22:03:42.716Z,6.20
2019-02-19T22:06:11.783Z,5.47
2019-02-19T22:08:40.778Z,5.77
2019-02-19T22:11:09.728Z,5.10
2019-02-19T22:13:38.654Z,5.50
2019-02-19T22:16:07.672Z,5.13
2019-02-19T22:18:36.676Z,5.50
2019-02-19T22:21:13.908Z,5.03
2019-02-19T22:23:42.877Z,5.57
2019-02-19T22:26:11.876Z,6.60
2019-02-19T22:28:40.876Z,5.70
2019-02-19T22:31:09.856Z,6.40
2019-02-19T22:33:38.854Z,5.20
2019-02-19T22:36:07.847Z,5.27
2019-02-19T22:38:36.936Z,5.93
2019-02-19T22:41:05.942Z,5.40
2019-02-19T22:43:34.965Z,5.37
2019-02-19T22:46:04.884Z,6.07
2019-02-19T22:48:33.942Z,5.73
2019-02-19T22:51:03.023Z,5.77
2019-02-19T22:53:42.627Z,6.00
2019-02-19T22:56:17.303Z,6.80
2019-02-19T22:58:46.361Z,6.63
2019-02-19T23:01:43.181Z,5.50
2019-02-19T23:04:12.098Z,5.50
2019-02-19T23:06:41.100Z,6.17
2019-02-19T23:09:10.147Z,5.90
2019-02-19T23:11:39.079Z,5.90
2019-02-19T23:14:08.183Z,5.83
2019-02-19T23:16:37.208Z,5.90
2019-02-19T23:19:06.195Z,5.97
2019-02-19T23:21:35.162Z,6.00
2019-02-19T23:24:04.062Z,6.73
2019-02-19T23:26:33.096Z,6.77
2019-02-19T23:29:02.193Z,6.73
2019-02-19T23:31:31.122Z,6.63
2019-02-19T23:34:00.204Z,6.43
2019-02-19T23:36:50.714Z,6.23
2019-02-19T23:39:19.837Z,6.53
2019-02-19T23:41:48.964Z,6.13
2019-02-19T23:44:18.044Z,6.97
2019-02-19T23:46:46.999Z,6.57
2019-02-19T23:49:16.014Z,6.67
2019-02-19T23:51:45.040Z,6.13
2019-02-19T23:54:14.120Z,6.80
2019-02-19T23:56:43.189Z,6.33
2019-02-19T23:59:12.258Z,6.53
